Time;durP1;ratioP1;P1;durP2;ratioP2;P2;SDS_P1;SDS_P2;PMS_P1;PMS_P2;Temp;Humidity;BMP_temperature;BMP_pressure;BME280_temperature;BME280_humidity;BME280_pressure;Samples;Min_cycle;Max_cycle;Signal;HPM_P1;HPM_P2
2021/10/18 00:01:19;;;;;;;45.38;26.20;;;;;;;7.50;100.00;99290.61;2190244;81;21023;-82
2021/10/18 00:04:20;;;;;;;42.60;24.55;;;;;;;7.49;100.00;99292.40;2229399;80;20991;-82
2021/10/18 00:07:22;;;;;;;45.23;26.80;;;;;;;7.50;100.00;99290.61;2229088;80;20991;-83
2021/10/18 00:10:23;;;;;;;41.40;25.70;;;;;;;7.51;100.00;99292.28;2190076;81;21061;-82
2021/10/18 00:13:24;;;;;;;44.10;25.10;;;;;;;7.52;100.00;99287.40;2190298;81;21407;-82
2021/10/18 00:16:25;;;;;;;43.42;23.10;;;;;;;7.51;100.00;99283.98;2229245;80;21086;-82
2021/10/18 00:19:25;;;;;;;39.35;23.57;;;;;;;7.48;100.00;99282.13;2229195;80;21004;-82
2021/10/18 00:22:26;;;;;;;39.42;24.10;;;;;;;7.45;100.00;99277.22;2190468;81;21535;-82
2021/10/18 00:25:27;;;;;;;40.58;22.17;;;;;;;7.42;100.00;99279.64;2190327;81;21003;-82
2021/10/18 00:28:28;;;;;;;41.18;24.05;;;;;;;7.43;100.00;99283.87;2229239;80;20991;-82
2021/10/18 00:31:29;;;;;;;40.90;24.20;;;;;;;7.41;100.00;99276.70;2229149;80;20964;-81
2021/10/18 00:34:30;;;;;;;38.75;25.65;;;;;;;7.42;100.00;99277.03;2190374;81;20940;-85
2021/10/18 00:37:30;;;;;;;43.17;24.47;;;;;;;7.46;100.00;99273.16;2190216;81;21019;-82
2021/10/18 00:40:31;;;;;;;43.78;24.55;;;;;;;7.44;100.00;99271.67;2228795;80;21020;-82
2021/10/18 00:43:32;;;;;;;41.50;23.95;;;;;;;7.42;100.00;99266.61;2231288;78;21021;-82
2021/10/18 00:46:33;;;;;;;44.30;27.10;;;;;;;7.40;100.00;99268.52;2261480;79;20975;-82
2021/10/18 00:49:34;;;;;;;42.70;25.48;;;;;;;7.35;100.00;99270.27;2261604;79;21010;-82
2021/10/18 00:52:35;;;;;;;45.33;25.80;;;;;;;7.37;100.00;99267.52;2261928;79;21062;-83
2021/10/18 00:55:35;;;;;;;43.95;26.27;;;;;;;7.37;100.00;99267.03;2261666;79;20959;-83
2021/10/18 00:58:36;;;;;;;49.05;29.42;;;;;;;7.36;100.00;99254.97;2261722;79;21066;-83
2021/10/18 01:01:37;;;;;;;46.40;27.07;;;;;;;7.39;100.00;99255.16;2261509;79;20947;-83
2021/10/18 01:04:38;;;;;;;48.68;26.60;;;;;;;7.38;100.00;99256.13;2261766;79;21038;-83
2021/10/18 01:07:39;;;;;;;44.27;26.87;;;;;;;7.38;100.00;99263.45;2261949;79;21025;-82
2021/10/18 01:10:40;;;;;;;41.92;24.40;;;;;;;7.39;100.00;99272.09;2261917;79;20959;-83
2021/10/18 01:13:40;;;;;;;42.17;24.75;;;;;;;7.36;100.00;99267.18;2261792;79;21050;-82
2021/10/18 01:16:41;;;;;;;44.45;23.75;;;;;;;7.33;100.00;99270.91;2261737;79;20955;-82
2021/10/18 01:19:42;;;;;;;49.48;25.97;;;;;;;7.29;100.00;99273.45;2261615;79;21299;-82
2021/10/18 01:22:43;;;;;;;37.38;23.52;;;;;;;7.22;100.00;99261.14;2261995;79;21097;-82
2021/10/18 01:25:44;;;;;;;50.83;30.12;;;;;;;7.31;100.00;99273.30;2262115;79;21003;-82
2021/10/18 01:28:45;;;;;;;85.38;36.30;;;;;;;7.31;100.00;99272.81;2262137;79;21006;-82
2021/10/18 01:31:45;;;;;;;53.05;25.17;;;;;;;7.34;100.00;99273.03;2262280;79;20998;-82
2021/10/18 01:34:46;;;;;;;48.65;25.10;;;;;;;7.39;100.00;99274.70;2262181;79;20997;-82
2021/10/18 01:37:47;;;;;;;43.58;24.55;;;;;;;7.42;100.00;99274.42;2262141;79;21082;-82
2021/10/18 01:40:48;;;;;;;43.45;25.55;;;;;;;7.44;100.00;99275.58;2262142;79;21516;-83
2021/10/18 01:43:48;;;;;;;34.63;21.33;;;;;;;7.45;100.00;99274.61;2261893;78;21058;-83
2021/10/18 01:46:49;;;;;;;35.17;21.45;;;;;;;7.44;100.00;99274.28;2259990;79;20955;-82
2021/10/18 01:49:50;;;;;;;42.65;23.25;;;;;;;7.40;100.00;99269.82;2259969;79;21005;-83
2021/10/18 01:52:51;;;;;;;38.20;22.02;;;;;;;7.40;100.00;99269.82;2260027;79;21046;-82
2021/10/18 01:55:52;;;;;;;41.55;23.90;;;;;;;7.49;100.00;99273.34;2260024;79;20975;-82
2021/10/18 01:58:52;;;;;;;39.30;23.62;;;;;;;7.52;100.00;99277.80;2260244;79;21046;-82
2021/10/18 02:01:53;;;;;;;38.02;22.05;;;;;;;7.55;100.00;99280.58;2259963;79;21549;-83
2021/10/18 02:04:54;;;;;;;42.33;21.77;;;;;;;7.57;100.00;99279.95;2259842;79;21081;-83
2021/10/18 02:07:55;;;;;;;38.73;22.55;;;;;;;7.57;100.00;99279.46;2259946;79;21042;-83
2021/10/18 02:10:56;;;;;;;39.88;23.40;;;;;;;7.60;100.00;99279.67;2259964;79;21561;-83
2021/10/18 02:13:57;;;;;;;32.45;20.25;;;;;;;7.60;100.00;99276.58;2259820;79;20999;-83
2021/10/18 02:16:57;;;;;;;38.40;23.30;;;;;;;7.59;100.00;99273.64;2259994;79;20967;-83
2021/10/18 02:19:58;;;;;;;32.83;21.60;;;;;;;7.56;100.00;99277.83;2260002;79;21073;-83
2021/10/18 02:22:59;;;;;;;38.00;23.02;;;;;;;7.57;100.00;99276.04;2259898;79;20999;-83
2021/10/18 02:26:00;;;;;;;38.10;22.75;;;;;;;7.57;100.00;99272.13;2259937;79;21526;-83
2021/10/18 02:29:01;;;;;;;36.20;21.65;;;;;;;7.60;100.00;99275.28;2259843;79;21019;-83
2021/10/18 02:32:02;;;;;;;33.40;21.15;;;;;;;7.59;100.00;99276.25;2259963;79;20975;-83
2021/10/18 02:35:03;;;;;;;37.23;22.87;;;;;;;7.59;100.00;99275.41;2259870;79;21018;-83
2021/10/18 02:38:04;;;;;;;31.87;20.43;;;;;;;7.63;100.00;99272.86;2259406;79;20990;-83
2021/10/18 02:41:05;;;;;;;34.43;22.45;;;;;;;7.63;100.00;99276.77;2259624;79;21596;-83
2021/10/18 02:44:05;;;;;;;36.05;21.27;;;;;;;7.62;100.00;99277.25;2259899;78;20967;-83
2021/10/18 02:47:08;;;;;;;75.32;41.42;;;;;;;7.64;100.00;99276.61;2266742;78;21584;-83
2021/10/18 02:50:09;;;;;;;77.58;37.85;;;;;;;7.65;100.00;99270.91;2266766;78;21513;-83
2021/10/18 02:53:09;;;;;;;56.85;28.05;;;;;;;7.63;100.00;99272.38;2266637;78;20982;-81
2021/10/18 02:56:10;;;;;;;47.93;24.40;;;;;;;7.58;100.00;99268.55;2266621;78;20962;-84
2021/10/18 02:59:11;;;;;;;45.38;25.20;;;;;;;7.57;100.00;99277.34;2266457;78;20979;-86
2021/10/18 03:02:12;;;;;;;45.40;24.23;;;;;;;7.55;100.00;99274.06;2266681;78;21620;-86
2021/10/18 03:05:13;;;;;;;34.65;22.52;;;;;;;7.53;100.00;99277.31;2266666;78;20998;-84
2021/10/18 03:08:14;;;;;;;38.88;21.52;;;;;;;7.56;100.00;99280.92;2266562;78;20951;-84
2021/10/18 03:11:15;;;;;;;32.08;20.35;;;;;;;7.54;100.00;99274.55;2266722;78;21049;-84
2021/10/18 03:14:16;;;;;;;36.17;21.17;;;;;;;7.48;100.00;99269.91;2266561;78;21026;-83
2021/10/18 03:17:17;;;;;;;32.28;21.95;;;;;;;7.48;100.00;99275.13;2266967;78;21006;-83
2021/10/18 03:20:18;;;;;;;32.70;19.80;;;;;;;7.54;100.00;99282.38;2266616;78;20975;-83
2021/10/18 03:23:19;;;;;;;35.25;22.30;;;;;;;7.54;100.00;99280.25;2266670;78;21042;-83
2021/10/18 03:26:20;;;;;;;37.38;23.20;;;;;;;7.54;100.00;99283.67;2266698;78;21035;-82
2021/10/18 03:29:21;;;;;;;33.92;21.60;;;;;;;7.56;100.00;99280.92;2266646;78;21033;-83
2021/10/18 03:32:25;;;;;;;34.58;21.25;;;;;;;7.57;100.00;99287.28;2266503;78;20999;-83
2021/10/18 03:35:25;;;;;;;33.95;21.70;;;;;;;7.57;100.00;99286.46;2266037;78;21070;-82
2021/10/18 03:38:26;;;;;;;36.23;20.00;;;;;;;7.56;100.00;99293.46;2266644;78;21474;-82
2021/10/18 03:41:26;;;;;;;32.65;21.85;;;;;;;7.52;100.00;99287.40;2266500;78;21089;-82
2021/10/18 03:44:27;;;;;;;36.58;21.23;;;;;;;7.55;100.00;99292.31;2266370;78;21640;-83
2021/10/18 03:47:28;;;;;;;32.17;21.30;;;;;;;7.58;100.00;99287.61;2266804;78;21029;-83
2021/10/18 03:50:29;;;;;;;35.35;21.65;;;;;;;7.57;100.00;99291.19;2266633;78;20959;-83
2021/10/18 03:53:30;;;;;;;34.27;19.60;;;;;;;7.56;100.00;99302.58;2266604;78;21082;-82
2021/10/18 03:56:34;;;;;;;36.33;21.15;;;;;;;7.55;100.00;99297.52;2266525;78;21019;-83
2021/10/18 03:59:33;;;;;;;30.90;21.20;;;;;;;7.51;100.00;99303.52;2265772;78;21038;-82
2021/10/18 04:02:34;;;;;;;36.95;25.75;;;;;;;7.50;100.00;99301.03;2266478;78;21014;-83
2021/10/18 04:05:35;;;;;;;56.53;34.80;;;;;;;7.48;100.00;99301.67;2266397;78;20912;-83
2021/10/18 04:08:39;;;;;;;45.43;26.73;;;;;;;7.48;100.00;99302.48;2266470;78;21268;-83
2021/10/18 04:11:39;;;;;;;41.08;23.95;;;;;;;7.52;100.00;99297.83;2265958;78;21583;-83
2021/10/18 04:14:40;;;;;;;34.58;22.90;;;;;;;7.56;100.00;99301.77;2266564;78;20978;-83
2021/10/18 04:17:42;;;;;;;39.15;22.27;;;;;;;7.57;100.00;99300.80;2266781;78;21504;-82
2021/10/18 04:20:43;;;;;;;33.55;21.10;;;;;;;7.60;100.00;99304.44;2266591;78;21117;-82
2021/10/18 04:23:43;;;;;;;30.23;21.60;;;;;;;7.65;100.00;99308.70;2266531;78;21481;-82
2021/10/18 04:26:44;;;;;;;34.60;21.93;;;;;;;7.70;100.00;99311.71;2266613;78;21010;-83
2021/10/18 04:29:46;;;;;;;34.40;21.65;;;;;;;7.68;100.00;99313.16;2266596;78;21058;-82
2021/10/18 04:32:46;;;;;;;29.37;19.75;;;;;;;7.69;100.00;99311.38;2266564;78;21074;-82
2021/10/18 04:35:47;;;;;;;31.80;22.07;;;;;;;7.66;100.00;99312.95;2266543;78;21509;-83
2021/10/18 04:38:48;;;;;;;32.45;21.17;;;;;;;7.66;100.00;99315.08;2266624;78;20994;-82
2021/10/18 04:41:49;;;;;;;31.68;21.62;;;;;;;7.69;100.00;99311.38;2266554;78;21525;-82
2021/10/18 04:44:50;;;;;;;36.77;21.73;;;;;;;7.65;100.00;99319.13;2265785;78;21126;-82
2021/10/18 04:47:51;;;;;;;34.03;22.07;;;;;;;7.67;100.00;99318.50;2261975;79;21038;-82
2021/10/18 04:50:52;;;;;;;36.05;22.67;;;;;;;7.74;100.00;99322.66;2261868;79;20977;-82
2021/10/18 04:53:53;;;;;;;34.48;21.23;;;;;;;7.69;100.00;99315.28;2261946;79;21497;-82
2021/10/18 04:56:54;;;;;;;33.73;21.57;;;;;;;7.69;100.00;99323.11;2261852;79;20993;-82
2021/10/18 04:59:54;;;;;;;33.48;21.50;;;;;;;7.65;100.00;99324.34;2262358;79;21441;-82
2021/10/18 05:02:56;;;;;;;34.58;21.62;;;;;;;7.65;100.00;99329.08;2261921;79;21002;-82
2021/10/18 05:05:57;;;;;;;37.42;22.20;;;;;;;7.66;100.00;99331.20;2262130;79;21542;-84
2021/10/18 05:08:57;;;;;;;35.38;21.57;;;;;;;7.68;100.00;99334.02;2262496;79;20924;-84
2021/10/18 05:12:01;;;;;;;30.57;21.15;;;;;;;7.70;100.00;99341.20;2262192;79;20998;-83
2021/10/18 05:15:04;;;;;;;36.95;21.90;;;;;;;7.74;100.00;99341.72;2262591;79;21546;-83
2021/10/18 05:18:06;;;;;;;31.97;20.37;;;;;;;7.73;100.00;99341.87;2232202;79;21608;-83
2021/10/18 05:21:14;;;;;;;35.83;22.95;;;;;;;7.69;100.00;99351.30;2261950;79;21169;-81
2021/10/18 05:24:13;;;;;;;41.35;26.27;;;;;;;7.68;100.00;99362.69;2260722;79;21109;-82
2021/10/18 05:27:15;;;;;;;43.23;27.62;;;;;;;7.72;100.00;99367.12;2232193;79;20975;-82
2021/10/18 05:30:19;;;;;;;41.18;25.95;;;;;;;7.73;100.00;99374.45;2262586;78;20997;-82
2021/10/18 05:33:26;;;;;;;44.42;26.80;;;;;;;7.76;100.00;99375.45;2237597;79;21054;-82
2021/10/18 05:36:26;;;;;;;42.45;25.12;;;;;;;7.75;100.00;99376.42;2261694;78;21017;-83
2021/10/18 05:39:30;;;;;;;40.08;26.55;;;;;;;7.75;100.00;99382.45;2262199;79;20960;-82
2021/10/18 05:42:30;;;;;;;33.02;22.87;;;;;;;7.78;100.00;99386.10;2261815;78;21055;-82
2021/10/18 05:45:33;;;;;;;36.35;22.60;;;;;;;7.80;100.00;99393.77;2253294;78;21032;-82
2021/10/18 05:48:34;;;;;;;39.85;24.18;;;;;;;7.78;100.00;99390.50;2190181;81;21079;-83
2021/10/18 05:51:36;;;;;;;38.00;24.20;;;;;;;7.80;100.00;99396.38;2190543;81;20972;-83
2021/10/18 05:54:38;;;;;;;36.68;22.02;;;;;;;7.78;100.00;99399.62;2229407;80;21055;-86
2021/10/18 05:57:39;;;;;;;42.20;24.52;;;;;;;7.79;100.00;99400.77;2229634;80;21059;-80
2021/10/18 06:00:40;;;;;;;42.93;24.50;;;;;;;7.75;100.00;99404.62;2190493;81;21007;-90
2021/10/18 06:03:41;;;;;;;35.50;22.65;;;;;;;7.81;100.00;99407.14;2190510;81;21010;-85
2021/10/18 06:06:42;;;;;;;30.65;20.40;;;;;;;7.86;100.00;99412.27;2229383;80;21007;-85
2021/10/18 06:09:43;;;;;;;37.83;24.65;;;;;;;7.84;100.00;99414.17;2229400;80;20995;-84
2021/10/18 06:12:44;;;;;;;35.13;22.45;;;;;;;7.87;100.00;99417.82;2190458;81;20967;-87
2021/10/18 06:15:45;;;;;;;30.72;20.90;;;;;;;7.92;100.00;99418.67;2190587;81;21645;-88
2021/10/18 06:18:46;;;;;;;33.42;22.15;;;;;;;7.91;100.00;99426.98;2229396;80;20955;-87
2021/10/18 06:21:47;;;;;;;32.73;22.50;;;;;;;7.96;100.00;99430.47;2229467;80;21050;-86
2021/10/18 06:24:47;;;;;;;37.33;21.42;;;;;;;8.01;100.00;99432.62;2190582;81;21038;-85
2021/10/18 06:27:48;;;;;;;30.57;21.62;;;;;;;8.05;100.00;99437.91;2190500;81;20990;-85
2021/10/18 06:30:49;;;;;;;34.13;21.73;;;;;;;8.07;100.00;99438.58;2229422;80;20952;-86
2021/10/18 06:33:50;;;;;;;31.30;20.70;;;;;;;8.11;100.00;99449.05;2229480;80;21515;-86
2021/10/18 06:36:51;;;;;;;33.15;21.07;;;;;;;8.20;100.00;99451.59;2190540;81;21041;-85
2021/10/18 06:39:52;;;;;;;31.82;20.68;;;;;;;8.26;100.00;99453.63;2190584;81;20982;-88
2021/10/18 06:42:53;;;;;;;33.50;20.43;;;;;;;8.32;100.00;99453.53;2229240;80;21049;-85
2021/10/18 06:45:54;;;;;;;27.30;19.95;;;;;;;8.39;100.00;99460.30;2239266;78;21015;-85
2021/10/18 06:48:55;;;;;;;31.10;21.50;;;;;;;8.46;100.00;99466.58;2261976;79;21064;-85
2021/10/18 06:51:57;;;;;;;30.80;20.15;;;;;;;8.47;100.00;99466.43;2261880;79;20927;-86
2021/10/18 06:55:04;;;;;;;33.05;20.00;;;;;;;8.48;100.00;99473.77;2262047;79;21051;-86
2021/10/18 06:58:07;;;;;;;27.30;18.77;;;;;;;8.46;100.00;99479.62;2261948;78;21010;-86
2021/10/18 07:01:11;;;;;;;27.87;18.05;;;;;;;8.46;100.00;99477.84;2262100;79;21085;-85
2021/10/18 07:04:13;;;;;;;27.45;19.85;;;;;;;8.47;100.00;99484.70;2261884;79;20970;-86
2021/10/18 07:07:14;;;;;;;31.23;21.60;;;;;;;8.46;100.00;99486.98;2261708;79;21018;-86
2021/10/18 07:10:15;;;;;;;29.50;20.27;;;;;;;8.47;100.00;99493.83;2261909;79;21589;-85
2021/10/18 07:13:16;;;;;;;31.50;19.85;;;;;;;8.46;100.00;99492.68;2261907;79;20970;-85
2021/10/18 07:16:17;;;;;;;25.27;17.57;;;;;;;8.49;100.00;99498.90;2262023;79;21042;-86
2021/10/18 07:19:18;;;;;;;26.48;19.05;;;;;;;8.52;100.00;99496.84;2261964;79;21490;-85
2021/10/18 07:22:18;;;;;;;30.77;19.35;;;;;;;8.52;100.00;99494.23;2261794;79;21552;-85
2021/10/18 07:25:20;;;;;;;27.45;19.65;;;;;;;8.50;100.00;99493.56;2261846;79;20949;-85
2021/10/18 07:28:21;;;;;;;22.55;16.40;;;;;;;8.54;100.00;99497.50;2261619;79;21066;-86
2021/10/18 07:31:22;;;;;;;30.08;19.20;;;;;;;8.61;100.00;99508.19;2261949;79;21545;-85
2021/10/18 07:34:23;;;;;;;32.28;20.88;;;;;;;8.63;100.00;99509.34;2262031;79;21513;-86
2021/10/18 07:37:27;;;;;;;26.85;18.55;;;;;;;8.67;100.00;99508.88;2261915;79;20951;-85
2021/10/18 07:40:27;;;;;;;30.40;18.98;;;;;;;8.72;100.00;99510.58;2261608;79;21021;-86
2021/10/18 07:43:28;;;;;;;29.75;20.08;;;;;;;8.76;100.00;99505.37;2261975;79;21009;-85
2021/10/18 07:46:29;;;;;;;29.48;17.45;;;;;;;8.80;100.00;99510.66;2263879;78;20990;-85
2021/10/18 07:49:35;;;;;;;30.82;19.37;;;;;;;8.87;100.00;99520.48;2266905;78;21001;-85
2021/10/18 07:52:34;;;;;;;31.77;18.60;;;;;;;8.90;100.00;99517.11;2266291;78;21090;-86
2021/10/18 07:55:37;;;;;;;26.37;16.57;;;;;;;8.97;100.00;99518.17;2266690;78;21013;-86
2021/10/18 07:58:38;;;;;;;26.25;17.55;;;;;;;9.00;100.00;99519.66;2266495;78;21003;-87
2021/10/18 08:01:40;;;;;;;35.50;20.25;;;;;;;9.02;100.00;99519.01;2266581;78;21541;-86
2021/10/18 08:04:41;;;;;;;35.10;21.02;;;;;;;9.05;100.00;99518.24;2266818;78;21542;-85
2021/10/18 08:07:42;;;;;;;29.18;19.12;;;;;;;9.11;100.00;99512.39;2266517;78;21002;-87
2021/10/18 08:10:43;;;;;;;34.95;19.45;;;;;;;9.22;100.00;99511.33;2266668;78;21014;-86
2021/10/18 08:13:45;;;;;;;28.70;19.10;;;;;;;9.32;100.00;99520.39;2266751;78;21009;-87
2021/10/18 08:16:46;;;;;;;30.55;17.67;;;;;;;9.41;100.00;99514.25;2266531;78;20927;-87
2021/10/18 08:19:47;;;;;;;24.63;15.93;;;;;;;9.43;100.00;99526.70;2266606;78;20966;-86
2021/10/18 08:22:49;;;;;;;27.65;18.40;;;;;;;9.43;100.00;99525.89;2266679;78;20970;-87
2021/10/18 08:25:50;;;;;;;32.65;19.25;;;;;;;9.45;100.00;99534.39;2266761;78;21014;-87
2021/10/18 08:28:51;;;;;;;31.45;18.73;;;;;;;9.46;100.00;99532.11;2266525;78;21005;-88
2021/10/18 08:31:52;;;;;;;35.33;20.05;;;;;;;9.44;100.00;99536.19;2266572;78;21009;-87
2021/10/18 08:34:54;;;;;;;33.48;18.20;;;;;;;9.43;100.00;99535.86;2266450;78;20979;-87
2021/10/18 08:41:22;;;;;;;30.05;18.30;;;;;;;9.55;100.00;99531.19;2266130;78;21054;-86
2021/10/18 08:44:21;;;;;;;23.50;15.63;;;;;;;9.71;100.00;99530.00;2239895;78;21929;-87
2021/10/18 08:47:22;;;;;;;21.42;14.73;;;;;;;9.77;100.00;99529.36;2263532;78;21034;-87
2021/10/18 08:50:23;;;;;;;25.80;15.28;;;;;;;9.88;100.00;99524.38;2261958;79;20986;-86
2021/10/18 08:53:25;;;;;;;23.85;15.35;;;;;;;9.93;100.00;99527.34;2261939;79;21310;-86
2021/10/18 08:56:26;;;;;;;26.20;15.93;;;;;;;10.02;100.00;99536.05;2261734;79;21006;-87
2021/10/18 08:59:27;;;;;;;25.50;15.53;;;;;;;10.12;100.00;99532.34;2261753;79;21598;-87
2021/10/18 09:02:28;;;;;;;29.15;17.10;;;;;;;10.18;100.00;99552.66;2261663;79;20975;-86
2021/10/18 09:05:29;;;;;;;23.00;14.75;;;;;;;10.21;100.00;99540.55;2261942;79;21550;-86
2021/10/18 09:08:30;;;;;;;25.72;16.10;;;;;;;10.24;100.00;99534.20;2261634;79;21046;-87
2021/10/18 09:11:31;;;;;;;27.42;14.60;;;;;;;10.31;100.00;99537.02;2261619;79;21593;-89
2021/10/18 09:14:33;;;;;;;30.20;16.45;;;;;;;10.28;100.00;99542.58;2261789;79;21002;-87
2021/10/18 09:17:34;;;;;;;21.77;15.10;;;;;;;10.32;100.00;99556.49;2261815;79;21034;-88
2021/10/18 09:20:39;;;;;;;21.62;15.30;;;;;;;10.33;100.00;99552.89;2261923;79;21022;-87
2021/10/18 09:23:40;;;;;;;22.70;16.50;;;;;;;10.24;100.00;99561.23;2260703;78;21150;-87
2021/10/18 09:26:40;;;;;;;26.73;17.85;;;;;;;10.18;100.00;99567.05;2261775;78;21727;-89
2021/10/18 09:29:45;;;;;;;22.55;15.53;;;;;;;10.21;100.00;99562.80;2262027;79;20971;-88
2021/10/18 09:32:46;;;;;;;23.45;15.93;;;;;;;10.28;100.00;99562.22;2262213;79;20966;-85
2021/10/18 09:35:47;;;;;;;24.15;15.15;;;;;;;10.31;100.00;99567.13;2261824;79;21553;-86
2021/10/18 09:38:48;;;;;;;21.42;14.18;;;;;;;10.32;100.00;99570.89;2261974;79;21002;-87
2021/10/18 09:41:49;;;;;;;19.02;13.88;;;;;;;10.33;100.00;99572.53;2261767;79;21057;-86
2021/10/18 10:51:13;;;;;;;18.55;12.53;;;;;;;10.42;100.00;99579.93;2262059;79;21071;-85
2021/10/18 10:54:09;;;;;;;19.40;13.53;;;;;;;10.44;100.00;99577.51;2260457;78;21107;-85
2021/10/18 10:57:12;;;;;;;17.70;13.20;;;;;;;10.45;100.00;99586.18;2262147;79;21066;-86
2021/10/18 11:00:13;;;;;;;19.10;13.40;;;;;;;10.45;100.00;99584.38;2261928;79;21025;-85
2021/10/18 11:03:14;;;;;;;19.00;13.20;;;;;;;10.47;100.00;99583.73;2262002;79;20998;-86
2021/10/18 11:06:15;;;;;;;17.25;12.78;;;;;;;10.46;100.00;99583.89;2262114;79;21009;-85
2021/10/18 11:09:17;;;;;;;17.35;12.98;;;;;;;10.44;100.00;99589.29;2261958;79;20998;-85
2021/10/18 11:12:18;;;;;;;23.95;14.47;;;;;;;10.39;100.00;99586.80;2261943;79;20939;-86
2021/10/18 11:15:20;;;;;;;24.43;15.83;;;;;;;10.37;100.00;99583.52;2262211;79;21040;-85
2021/10/18 11:18:21;;;;;;;24.57;15.95;;;;;;;10.37;100.00;99577.80;2261879;79;21649;-85
2021/10/18 11:21:22;;;;;;;22.73;15.18;;;;;;;10.38;100.00;99576.81;2261895;79;20994;-85
2021/10/18 11:24:23;;;;;;;21.17;14.93;;;;;;;10.42;100.00;99568.15;2261997;79;20971;-85
2021/10/18 11:27:26;;;;;;;22.80;15.10;;;;;;;10.43;100.00;99564.58;2232519;79;21015;-85
2021/10/18 11:30:27;;;;;;;21.90;15.58;;;;;;;10.40;100.00;99557.02;2262103;79;21014;-85
2021/10/18 11:33:30;;;;;;;18.42;12.93;;;;;;;10.46;100.00;99556.40;2260836;79;21050;-85
2021/10/18 11:36:32;;;;;;;22.40;14.98;;;;;;;10.54;100.00;99558.56;2261975;79;21051;-86
2021/10/18 11:39:32;;;;;;;20.75;14.03;;;;;;;10.58;100.00;99556.43;2261984;78;20998;-84
2021/10/18 11:42:34;;;;;;;19.70;14.00;;;;;;;10.59;100.00;99563.80;2261697;79;21122;-85
2021/10/18 11:45:35;;;;;;;20.12;14.10;;;;;;;10.59;100.00;99570.34;2232486;79;21025;-84
2021/10/18 11:48:37;;;;;;;22.27;14.47;;;;;;;10.61;100.00;99573.16;2261467;79;21031;-85
2021/10/18 11:51:38;;;;;;;23.50;14.70;;;;;;;10.58;100.00;99580.00;2261929;79;21047;-85
2021/10/18 11:54:39;;;;;;;21.35;14.28;;;;;;;10.58;100.00;99578.69;2262002;79;20959;-84
2021/10/18 11:57:42;;;;;;;21.02;13.70;;;;;;;10.54;100.00;99572.96;2262185;79;21002;-84
2021/10/18 12:00:43;;;;;;;19.52;13.58;;;;;;;10.54;100.00;99576.89;2262028;79;21655;-83
2021/10/18 12:04:06;;;;;;;23.73;14.55;;;;;;;10.46;100.00;99575.55;2261638;78;21058;-86
2021/10/18 12:06:49;;;;;;;21.80;14.15;;;;;;;10.44;100.00;99587.16;2222971;79;21074;-85
2021/10/18 12:09:50;;;;;;;20.00;14.07;;;;;;;10.40;100.00;99584.02;2262042;79;21027;-85
2021/10/18 12:12:51;;;;;;;21.77;14.93;;;;;;;10.36;100.00;99577.47;2262007;79;21045;-84
2021/10/18 12:15:52;;;;;;;22.37;15.25;;;;;;;10.36;100.00;99578.78;2261694;79;21010;-85
2021/10/18 12:18:53;;;;;;;20.45;14.85;;;;;;;10.40;100.00;99572.23;2261701;79;21026;-85
2021/10/18 12:21:55;;;;;;;24.00;14.60;;;;;;;10.45;100.00;99583.56;2261902;79;21038;-85
2021/10/18 12:24:56;;;;;;;23.67;15.43;;;;;;;10.50;100.00;99577.34;2261937;79;20978;-86
2021/10/18 12:28:00;;;;;;;23.27;16.27;;;;;;;10.56;100.00;99579.34;2260493;79;21050;-86
2021/10/18 12:31:01;;;;;;;20.70;14.58;;;;;;;10.53;100.00;99575.25;2261896;79;21014;-84
2021/10/18 12:34:01;;;;;;;24.00;16.35;;;;;;;10.59;100.00;99580.33;2261994;79;20931;-86
2021/10/18 12:37:05;;;;;;;24.00;16.12;;;;;;;10.65;100.00;99581.02;2262032;79;21552;-86
2021/10/18 12:40:05;;;;;;;18.12;12.73;;;;;;;10.68;100.00;99587.23;2262018;79;21082;-85
2021/10/18 12:43:06;;;;;;;24.57;15.45;;;;;;;10.65;100.00;99584.94;2262171;79;20989;-85
2021/10/18 12:46:08;;;;;;;26.55;17.27;;;;;;;10.60;100.00;99591.63;2261963;78;20979;-85
2021/10/18 12:49:09;;;;;;;22.27;15.72;;;;;;;10.64;100.00;99585.10;2261869;79;21073;-84
2021/10/18 12:52:10;;;;;;;22.22;15.90;;;;;;;10.62;100.00;99581.34;2262080;79;20982;-86
2021/10/18 12:55:11;;;;;;;22.65;16.67;;;;;;;10.62;100.00;99584.45;2262162;79;21001;-85
2021/10/18 12:58:12;;;;;;;23.75;16.75;;;;;;;10.71;100.00;99590.86;2262006;79;21546;-84
2021/10/18 13:01:13;;;;;;;22.75;16.85;;;;;;;10.83;100.00;99582.21;2262015;79;21005;-86
2021/10/18 13:04:13;;;;;;;24.80;16.85;;;;;;;10.98;100.00;99583.73;2262077;79;21031;-87
2021/10/18 13:07:14;;;;;;;22.42;16.35;;;;;;;11.00;100.00;99582.58;2261862;78;20995;-85
2021/10/18 13:10:15;;;;;;;19.92;14.70;;;;;;;11.06;100.00;99578.48;2261719;79;21525;-85
2021/10/18 13:13:16;;;;;;;21.20;16.17;;;;;;;11.08;100.00;99588.33;2262721;79;21664;-84
2021/10/18 13:16:17;;;;;;;22.52;17.12;;;;;;;11.05;100.00;99596.50;2262055;79;21055;-86
2021/10/18 13:19:18;;;;;;;21.85;16.40;;;;;;;11.00;100.00;99590.45;2262181;79;21002;-85
2021/10/18 13:22:19;;;;;;;34.43;22.77;;;;;;;11.00;100.00;99587.83;2262134;79;21010;-85
2021/10/18 13:25:22;;;;;;;22.45;15.80;;;;;;;11.07;100.00;99587.52;2261126;79;21010;-86
2021/10/18 13:28:25;;;;;;;19.77;14.98;;;;;;;11.06;100.00;99590.27;2262325;78;21018;-87
2021/10/18 13:31:30;;;;;;;22.98;16.37;;;;;;;10.98;100.00;99591.59;2252813;79;21049;-86
2021/10/18 13:34:32;;;;;;;24.25;17.90;;;;;;;10.94;100.00;99592.38;2260761;79;21070;-86
2021/10/18 13:37:38;;;;;;;28.17;19.23;;;;;;;10.86;100.00;99592.36;2260881;79;21077;-86
2021/10/18 13:40:40;;;;;;;26.75;18.10;;;;;;;10.77;100.00;99591.52;2257793;79;21034;-86
2021/10/18 13:44:09;;;;;;;26.30;17.77;;;;;;;10.74;100.00;99597.09;2261395;79;21078;-84
2021/10/18 13:47:01;;;;;;;;;;;;;;;;;;;;;
2021/10/18 13:50:13;;;;;;;30.85;19.35;;;;;;;10.75;100.00;99601.83;2261035;79;21073;-84
2021/10/18 13:53:20;;;;;;;25.72;16.55;;;;;;;10.74;100.00;99599.70;2260805;79;21027;-85
2021/10/18 13:56:28;;;;;;;29.63;19.80;;;;;;;10.71;100.00;99605.77;2261555;78;21112;-82
2021/10/18 13:59:41;;;;;;;;;;;;;;;;;;;;;
2021/10/18 14:02:47;;;;;;;27.48;18.80;;;;;;;10.63;100.00;99606.55;2259489;79;21030;-85
2021/10/18 14:05:43;;;;;;;29.48;18.90;;;;;;;10.60;100.00;99609.95;2229583;79;21026;-85
2021/10/18 14:08:47;;;;;;;25.32;16.90;;;;;;;10.54;100.00;99610.11;2262093;79;20987;-84
2021/10/18 14:11:51;;;;;;;27.55;18.15;;;;;;;10.52;100.00;99609.45;2261218;79;21042;-83
2021/10/18 14:14:53;;;;;;;31.55;18.27;;;;;;;10.47;100.00;99609.09;2182466;80;21084;-83
2021/10/18 14:17:53;;;;;;;28.42;19.05;;;;;;;10.44;100.00;99608.11;2213860;80;21056;-83
2021/10/18 14:20:54;;;;;;;34.03;18.40;;;;;;;10.38;100.00;99615.27;2223921;80;21330;-84
2021/10/18 14:23:55;;;;;;;32.17;19.00;;;;;;;10.34;100.00;99620.50;2223899;80;21439;-84
2021/10/18 14:26:58;;;;;;;30.88;19.50;;;;;;;10.35;100.00;99619.03;2224173;80;20925;-84
2021/10/18 14:29:59;;;;;;;27.25;17.90;;;;;;;10.38;100.00;99617.88;2224312;80;21080;-83
2021/10/18 14:32:59;;;;;;;31.93;20.65;;;;;;;10.40;100.00;99621.98;2224162;80;21001;-83
2021/10/18 14:36:00;;;;;;;32.45;20.17;;;;;;;10.45;100.00;99625.45;2224293;80;21012;-84
2021/10/18 14:39:02;;;;;;;28.67;20.08;;;;;;;10.45;100.00;99619.73;2224398;80;20941;-83
2021/10/18 14:42:03;;;;;;;29.25;18.50;;;;;;;10.47;100.00;99626.11;2224159;80;21130;-83
2021/10/18 14:45:06;;;;;;;35.90;21.10;;;;;;;10.49;100.00;99626.77;2224182;80;21003;-84
2021/10/18 14:48:06;;;;;;;31.93;21.27;;;;;;;10.45;100.00;99624.97;2218105;80;22061;-85
2021/10/18 14:51:07;;;;;;;31.80;22.52;;;;;;;10.46;100.00;99626.60;2232315;80;21042;-84
2021/10/18 14:54:10;;;;;;;42.30;26.85;;;;;;;10.48;100.00;99632.50;2252833;79;20969;-84
2021/10/18 14:57:11;;;;;;;38.30;25.37;;;;;;;10.51;100.00;99628.28;2232494;80;21011;-83
2021/10/18 15:00:12;;;;;;;34.48;24.35;;;;;;;10.56;100.00;99630.41;2232465;80;21448;-84
2021/10/18 15:03:12;;;;;;;37.17;24.65;;;;;;;10.58;100.00;99625.83;2252771;79;21021;-83